createdAt,value
2018-05-01T00:00:16.624Z,1.10
2018-05-01T00:02:46.196Z,1.10
2018-05-01T00:05:16.114Z,1.10
2018-05-01T00:07:46.022Z,1.23
2018-05-01T00:10:15.532Z,1.40
2018-05-01T00:12:45.446Z,1.33
2018-05-01T00:15:15.368Z,1.23
2018-05-01T00:17:45.318Z,1.90
2018-05-01T00:20:15.581Z,1.23
2018-05-01T00:22:45.524Z,1.50
2018-05-01T00:25:15.458Z,1.77
2018-05-01T00:27:45.014Z,1.20
2018-05-01T00:30:14.542Z,0.90
2018-05-01T00:32:44.052Z,1.13
2018-05-01T00:35:13.976Z,1.37
2018-05-01T00:37:43.884Z,1.67
2018-05-01T00:40:13.798Z,1.00
2018-05-01T00:42:43.786Z,0.90
2018-05-01T00:45:13.295Z,1.00
2018-05-01T00:47:42.874Z,1.00
2018-05-01T00:50:12.094Z,1.10
2018-05-01T00:52:45.526Z,1.13
2018-05-01T00:55:15.448Z,1.07
2018-05-01T00:57:45.360Z,1.00
2018-05-01T01:00:15.300Z,0.80
2018-05-01T01:02:44.808Z,0.90
2018-05-01T01:05:14.359Z,1.37
2018-05-01T01:07:43.878Z,1.00
2018-05-01T01:10:13.414Z,1.00
2018-05-01T01:12:42.957Z,1.53
2018-05-01T01:15:12.474Z,0.80
2018-05-01T01:17:41.982Z,1.13
2018-05-01T01:20:11.497Z,5.47
2018-05-01T01:22:41.032Z,0.90
2018-05-01T01:25:10.566Z,0.80
2018-05-01T01:27:40.209Z,1.00
2018-05-01T01:30:09.757Z,1.20
2018-05-01T01:32:39.002Z,0.50
2018-05-01T01:35:06.836Z,1.07
2018-05-01T01:37:34.445Z,1.27
2018-05-01T01:40:02.300Z,1.67
2018-05-01T01:42:30.115Z,1.50
2018-05-01T01:44:58.333Z,2.10
2018-05-01T01:47:26.153Z,0.80
2018-05-01T01:49:54.374Z,1.57
2018-05-01T01:52:22.183Z,1.00
2018-05-01T01:54:50.408Z,1.33
2018-05-01T01:57:18.240Z,1.23
2018-05-01T01:59:46.465Z,0.90
2018-05-01T02:02:14.379Z,2.83
2018-05-01T02:04:42.587Z,1.10
2018-05-01T02:07:10.858Z,2.40
2018-05-01T02:09:38.677Z,0.80
2018-05-01T02:12:06.485Z,1.47
2018-05-01T02:14:34.306Z,3.47
2018-05-01T02:17:02.176Z,1.53
2018-05-01T02:19:30.177Z,1.47
2018-05-01T02:21:58.029Z,2.37
2018-05-01T02:24:26.289Z,1.40
2018-05-01T02:26:54.113Z,0.80
2018-05-01T02:29:21.970Z,1.20
2018-05-01T02:31:49.775Z,1.10
2018-05-01T02:34:17.637Z,1.43
2018-05-01T02:36:45.469Z,1.60
2018-05-01T02:39:13.275Z,1.47
2018-05-01T02:41:41.086Z,1.13
2018-05-01T02:44:08.948Z,1.17
2018-05-01T02:46:36.783Z,2.67
2018-05-01T02:49:04.703Z,2.20
2018-05-01T02:51:32.511Z,1.13
2018-05-01T02:54:00.329Z,1.97
2018-05-01T02:56:28.383Z,1.53
2018-05-01T02:58:56.584Z,0.90
2018-05-01T03:01:24.691Z,1.57
2018-05-01T03:03:52.963Z,1.03
2018-05-01T03:06:20.805Z,0.83
2018-05-01T03:08:48.617Z,1.10
2018-05-01T03:11:16.435Z,1.07
2018-05-01T03:13:44.316Z,1.03
2018-05-01T03:16:13.104Z,1.00
2018-05-01T03:18:41.815Z,1.20
2018-05-01T03:21:09.743Z,0.97
2018-05-01T03:23:37.563Z,1.13
2018-05-01T03:26:05.381Z,1.00
2018-05-01T03:28:33.187Z,1.30
2018-05-01T03:31:01.009Z,0.93
2018-05-01T03:33:28.815Z,1.40
2018-05-01T03:35:56.635Z,0.93
2018-05-01T03:38:24.477Z,1.00
2018-05-01T03:40:52.347Z,2.27
2018-05-01T03:43:20.143Z,0.70
2018-05-01T03:45:47.989Z,2.43
2018-05-01T03:48:15.803Z,1.20
2018-05-01T03:50:43.618Z,1.53
2018-05-01T03:53:11.435Z,0.77
2018-05-01T03:55:39.327Z,1.27
2018-05-01T03:58:07.565Z,1.20
2018-05-01T04:00:35.410Z,2.27
2018-05-01T04:03:03.236Z,2.03
2018-05-01T04:05:31.275Z,1.20
2018-05-01T04:07:59.115Z,0.90
2018-05-01T04:10:29.115Z,1.20
2018-05-01T04:12:56.952Z,1.20
2018-05-01T04:15:25.251Z,0.90
2018-05-01T04:17:53.112Z,1.10
2018-05-01T04:20:21.333Z,1.10
2018-05-01T04:22:49.179Z,1.60
2018-05-01T04:25:17.069Z,1.50
2018-05-01T04:27:45.027Z,1.40
2018-05-01T04:30:12.857Z,1.37
2018-05-01T04:32:41.271Z,0.67
2018-05-01T04:35:09.096Z,1.13
2018-05-01T04:37:37.318Z,1.27
2018-05-01T04:40:05.332Z,0.90
2018-05-01T04:42:33.143Z,1.27
2018-05-01T04:45:00.956Z,1.00
2018-05-01T04:47:28.929Z,1.50
2018-05-01T04:49:56.816Z,1.50
2018-05-01T04:52:25.046Z,1.30
2018-05-01T04:54:53.297Z,1.80
2018-05-01T04:57:21.127Z,1.93
2018-05-01T04:59:49.338Z,1.60
2018-05-01T05:02:17.155Z,1.80
2018-05-01T05:04:44.983Z,1.40
2018-05-01T05:07:12.825Z,2.70
2018-05-01T05:09:40.645Z,1.60
2018-05-01T05:12:08.453Z,1.50
2018-05-01T05:14:36.320Z,1.30
2018-05-01T05:17:04.144Z,1.90
2018-05-01T05:19:31.954Z,2.20
2018-05-01T05:21:59.793Z,1.60
2018-05-01T05:24:27.625Z,1.53
2018-05-01T05:26:55.445Z,3.57
2018-05-01T05:29:23.414Z,1.80
2018-05-01T05:31:51.628Z,2.10
2018-05-01T05:34:19.443Z,2.33
2018-05-01T05:36:47.676Z,2.20
2018-05-01T05:39:15.491Z,1.63
2018-05-01T05:41:43.701Z,1.77
2018-05-01T05:44:11.519Z,1.90
2018-05-01T05:46:39.733Z,3.00
2018-05-01T05:49:07.317Z,2.23
2018-05-01T05:51:35.141Z,2.63
2018-05-01T05:54:03.402Z,2.10
2018-05-01T05:56:31.722Z,3.20
2018-05-01T05:58:59.523Z,2.20
2018-05-01T06:01:27.348Z,2.10
2018-05-01T06:03:55.166Z,1.87
2018-05-01T06:06:23.003Z,2.20
2018-05-01T06:08:50.951Z,2.07
2018-05-01T06:11:18.755Z,2.40
2018-05-01T06:13:46.572Z,1.90
2018-05-01T06:16:14.593Z,2.00
2018-05-01T06:18:42.429Z,2.80
2018-05-01T06:21:10.414Z,3.20
2018-05-01T06:23:38.218Z,2.30
2018-05-01T06:26:06.501Z,1.97
2018-05-01T06:28:34.707Z,2.50
2018-05-01T06:31:02.682Z,2.33
2018-05-01T06:33:30.539Z,2.47
2018-05-01T06:35:58.951Z,4.27
2018-05-01T06:38:26.779Z,2.73
2018-05-01T06:40:54.607Z,2.33
2018-05-01T06:43:22.499Z,2.90
2018-05-01T06:45:50.722Z,2.97
2018-05-01T06:48:18.565Z,2.57
2018-05-01T06:50:46.383Z,2.50
2018-05-01T06:53:14.422Z,2.50
2018-05-01T06:55:42.742Z,2.10
2018-05-01T06:58:10.967Z,2.00
2018-05-01T07:00:38.801Z,2.10
2018-05-01T07:03:06.619Z,2.20
2018-05-01T07:05:34.451Z,2.33
2018-05-01T07:08:02.259Z,2.50
2018-05-01T07:10:30.083Z,2.23
2018-05-01T07:12:57.891Z,3.27
2018-05-01T07:15:25.729Z,2.37
2018-05-01T07:17:54.065Z,2.60
2018-05-01T07:20:22.350Z,2.60
2018-05-01T07:22:50.550Z,2.57
2018-05-01T07:25:18.432Z,2.23
2018-05-01T07:27:46.281Z,2.37
2018-05-01T07:30:14.117Z,4.90
2018-05-01T07:32:42.329Z,2.60
2018-05-01T07:35:10.145Z,2.60
2018-05-01T07:37:38.384Z,2.20
2018-05-01T07:40:06.216Z,2.97
2018-05-01T07:42:34.094Z,2.50
2018-05-01T07:45:01.932Z,2.10
2018-05-01T07:47:30.136Z,1.97
2018-05-01T07:49:57.982Z,2.60
2018-05-01T07:52:26.232Z,2.60
2018-05-01T07:54:53.822Z,2.13
2018-05-01T07:57:21.630Z,2.20
2018-05-01T07:59:49.450Z,2.27
2018-05-01T08:02:17.675Z,2.37
2018-05-01T08:04:45.516Z,2.20
2018-05-01T08:07:13.452Z,2.40
2018-05-01T08:09:41.678Z,2.27
2018-05-01T08:12:09.579Z,2.00
2018-05-01T08:14:37.616Z,2.70
2018-05-01T08:17:05.629Z,3.00
2018-05-01T08:19:33.858Z,2.87
2018-05-01T08:22:01.673Z,2.00
2018-05-01T08:24:29.982Z,2.30
2018-05-01T08:26:57.888Z,2.63
2018-05-01T08:29:25.722Z,2.50
2018-05-01T08:31:53.606Z,2.23
2018-05-01T08:34:21.425Z,2.47
2018-05-01T08:36:49.645Z,2.37
2018-05-01T08:39:17.493Z,2.17
2018-05-01T08:41:45.364Z,2.80
2018-05-01T08:44:13.243Z,3.20
2018-05-01T08:46:41.127Z,2.80
2018-05-01T08:49:08.969Z,2.80
2018-05-01T08:51:36.789Z,2.50
2018-05-01T08:54:05.025Z,3.20
2018-05-01T08:56:32.859Z,2.77
2018-05-01T08:59:00.703Z,2.43
2018-05-01T09:01:28.985Z,3.03
2018-05-01T09:03:57.255Z,3.13
2018-05-01T09:06:25.095Z,2.53
2018-05-01T09:08:52.911Z,2.40
2018-05-01T09:11:20.711Z,2.20
2018-05-01T09:13:48.568Z,2.27
2018-05-01T09:16:16.397Z,2.37
2018-05-01T09:18:44.614Z,4.23
2018-05-01T09:21:12.448Z,2.00
2018-05-01T09:23:40.294Z,2.33
2018-05-01T09:26:08.515Z,2.20
2018-05-01T09:28:36.531Z,2.20
2018-05-01T09:31:04.358Z,2.20
2018-05-01T09:33:32.280Z,2.30
2018-05-01T09:36:00.503Z,2.90
2018-05-01T09:38:28.404Z,2.53
2018-05-01T09:40:56.432Z,2.07
2018-05-01T09:43:24.255Z,2.30
2018-05-01T09:45:52.536Z,1.90
2018-05-01T09:48:20.789Z,2.43
2018-05-01T09:50:48.812Z,2.17
2018-05-01T09:53:18.193Z,2.43
2018-05-01T09:55:47.872Z,2.30
2018-05-01T09:58:17.415Z,2.20
2018-05-01T10:00:46.733Z,2.60
2018-05-01T10:03:16.019Z,2.20
2018-05-01T10:05:45.551Z,2.00
2018-05-01T10:08:15.066Z,2.83
2018-05-01T10:10:44.590Z,2.73
2018-05-01T10:13:14.115Z,2.33
2018-05-01T10:15:44.079Z,2.70
2018-05-01T10:18:13.615Z,2.17
2018-05-01T10:20:43.132Z,2.10
2018-05-01T10:23:12.669Z,2.50
2018-05-01T10:25:42.392Z,1.80
2018-05-01T10:28:11.682Z,2.17
2018-05-01T10:30:41.235Z,1.97
2018-05-01T10:33:10.776Z,2.20
2018-05-01T10:35:40.703Z,2.27
2018-05-01T10:38:10.688Z,2.57
2018-05-01T10:40:40.306Z,2.23
2018-05-01T10:43:09.859Z,2.43
2018-05-01T10:45:39.207Z,4.50
2018-05-01T10:48:09.247Z,2.43
2018-05-01T10:50:39.159Z,3.00
2018-05-01T10:53:09.078Z,2.70
2018-05-01T10:55:39.006Z,3.13
2018-05-01T10:58:08.918Z,2.87
2018-05-01T11:00:38.848Z,2.80
2018-05-01T11:03:08.993Z,3.13
2018-05-01T11:05:38.525Z,2.60
2018-05-01T11:08:08.033Z,2.90
2018-05-01T11:10:37.607Z,2.93
2018-05-01T11:13:06.909Z,3.50
2018-05-01T11:15:36.880Z,3.30
2018-05-01T11:18:06.830Z,3.47
2018-05-01T11:20:36.348Z,3.13
2018-05-01T11:23:05.873Z,3.03
2018-05-01T11:25:35.391Z,4.03
2018-05-01T11:28:04.965Z,2.87
2018-05-01T11:30:34.541Z,3.37
2018-05-01T11:33:04.678Z,2.77
2018-05-01T11:35:34.201Z,3.07
2018-05-01T11:38:03.496Z,2.90
2018-05-01T11:40:33.053Z,3.43
2018-05-01T11:43:02.611Z,3.20
2018-05-01T11:45:32.129Z,3.20
2018-05-01T11:48:01.672Z,2.67
2018-05-01T11:50:31.191Z,3.00
2018-05-01T11:53:01.114Z,2.80
2018-05-01T11:55:31.067Z,3.43
2018-05-01T11:58:00.581Z,3.20
2018-05-01T12:00:30.110Z,3.03
2018-05-01T12:02:59.425Z,2.63
2018-05-01T12:05:28.622Z,3.00
2018-05-01T12:07:58.136Z,2.20
2018-05-01T12:10:28.056Z,2.70
2018-05-01T12:12:57.782Z,4.27
2018-05-01T12:15:27.962Z,2.40
2018-05-01T12:17:57.465Z,2.27
2018-05-01T12:20:26.998Z,2.10
2018-05-01T12:22:56.925Z,2.00
2018-05-01T12:25:26.850Z,2.10
2018-05-01T12:27:57.162Z,2.20
2018-05-01T12:30:27.156Z,3.97
2018-05-01T12:32:56.699Z,2.23
2018-05-01T12:35:26.350Z,2.47
2018-05-01T12:37:55.872Z,2.33
2018-05-01T12:40:25.176Z,1.70
2018-05-01T12:42:54.526Z,2.33
2018-05-01T12:45:24.033Z,1.73
2018-05-01T12:47:53.592Z,2.10
2018-05-01T12:50:23.154Z,1.93
2018-05-01T12:52:53.268Z,1.90
2018-05-01T12:55:22.800Z,1.87
2018-05-01T12:57:52.316Z,2.27
2018-05-01T13:00:21.834Z,2.83
2018-05-01T13:02:51.355Z,1.90
2018-05-01T13:05:21.263Z,2.10
2018-05-01T13:07:50.792Z,1.60
2018-05-01T13:10:20.699Z,1.80
2018-05-01T13:12:50.713Z,1.60
2018-05-01T13:15:20.414Z,1.90
2018-05-01T13:17:50.340Z,1.30
2018-05-01T13:20:20.304Z,2.20
2018-05-01T13:22:49.884Z,1.60
2018-05-01T13:25:19.760Z,1.90
2018-05-01T13:27:49.748Z,2.00
2018-05-01T13:30:19.328Z,3.30
2018-05-01T13:32:48.845Z,1.80
2018-05-01T13:35:18.370Z,1.80
2018-05-01T13:37:47.941Z,1.70
2018-05-01T13:40:17.673Z,1.80
2018-05-01T13:42:47.190Z,2.07
2018-05-01T13:45:16.841Z,3.00
2018-05-01T13:47:46.514Z,1.60
2018-05-01T13:50:16.213Z,1.70
2018-05-01T13:52:45.726Z,1.80
2018-05-01T13:55:15.328Z,1.33
2018-05-01T13:57:45.021Z,1.33
2018-05-01T14:00:14.537Z,1.77
2018-05-01T14:02:44.081Z,1.53
2018-05-01T14:05:13.597Z,1.80
2018-05-01T14:07:43.538Z,1.53
2018-05-01T14:10:13.076Z,1.87
2018-05-01T14:12:42.602Z,1.70
2018-05-01T14:15:12.128Z,1.97
2018-05-01T14:17:41.654Z,1.73
2018-05-01T14:20:11.224Z,1.80
2018-05-01T14:22:40.765Z,1.80
2018-05-01T14:25:10.695Z,1.80
2018-05-01T14:27:40.250Z,2.07
2018-05-01T14:30:09.789Z,2.50
2018-05-01T14:32:39.704Z,1.60
2018-05-01T14:35:09.630Z,2.73
2018-05-01T14:37:39.176Z,1.73
2018-05-01T14:40:08.723Z,1.80
2018-05-01T14:42:38.646Z,1.50
2018-05-01T14:45:08.567Z,1.67
2018-05-01T14:47:38.496Z,1.20
2018-05-01T14:50:08.023Z,1.07
2018-05-01T14:52:37.543Z,1.20
2018-05-01T14:55:07.077Z,1.50
2018-05-01T14:57:36.594Z,1.10
2018-05-01T15:00:06.530Z,2.40
2018-05-01T15:02:36.098Z,1.30
2018-05-01T15:05:05.341Z,1.20
2018-05-01T15:07:34.886Z,1.07
2018-05-01T15:10:04.433Z,1.20
2018-05-01T15:12:34.359Z,2.30
2018-05-01T15:15:04.347Z,1.13
2018-05-01T15:17:33.871Z,1.57
2018-05-01T15:20:03.797Z,1.30
2018-05-01T15:22:33.791Z,1.30
2018-05-01T15:25:03.332Z,1.27
2018-05-01T15:27:32.875Z,1.00
2018-05-01T15:30:02.470Z,2.40
2018-05-01T15:32:32.120Z,1.00
2018-05-01T15:37:29.586Z,1.20
2018-05-01T15:39:59.607Z,1.03
2018-05-01T15:42:29.192Z,0.80
2018-05-01T15:44:58.717Z,1.07
2018-05-01T15:47:28.257Z,1.20
2018-05-01T15:49:58.169Z,1.07
2018-05-01T15:52:28.128Z,1.53
2018-05-01T15:54:58.523Z,1.20
2018-05-01T15:57:28.055Z,1.27
2018-05-01T15:59:57.577Z,1.07
2018-05-01T16:02:27.204Z,1.53
2018-05-01T16:04:56.723Z,2.17
2018-05-01T16:07:26.319Z,1.50
2018-05-01T16:09:55.892Z,1.53
2018-05-01T16:12:25.404Z,1.30
2018-05-01T16:14:54.923Z,1.30
2018-05-01T16:17:24.304Z,1.90
2018-05-01T16:19:53.692Z,1.30
2018-05-01T16:22:23.223Z,1.40
2018-05-01T16:24:52.795Z,1.60
2018-05-01T16:27:22.102Z,1.60
2018-05-01T16:29:51.416Z,3.83
2018-05-01T16:32:20.967Z,5.00
2018-05-01T16:34:50.497Z,1.43
2018-05-01T16:37:20.438Z,1.20
2018-05-01T16:39:49.978Z,1.00
2018-05-01T16:42:19.509Z,1.27
2018-05-01T16:44:49.706Z,1.30
2018-05-01T16:47:19.231Z,1.93
2018-05-01T16:49:48.743Z,1.43
2018-05-01T16:52:18.280Z,1.93
2018-05-01T16:54:47.870Z,1.37
2018-05-01T16:57:17.790Z,1.33
2018-05-01T16:59:47.725Z,1.30
2018-05-01T17:02:17.267Z,2.53
2018-05-01T17:04:46.794Z,2.17
2018-05-01T17:07:16.368Z,1.30
2018-05-01T17:09:45.892Z,1.10
2018-05-01T17:12:15.413Z,0.93
2018-05-01T17:14:44.975Z,1.23
2018-05-01T17:17:14.547Z,1.33
2018-05-01T17:19:44.497Z,1.10
2018-05-01T17:22:14.021Z,1.23
2018-05-01T17:24:43.565Z,1.30
2018-05-01T17:27:13.551Z,0.90
2018-05-01T17:29:43.263Z,1.20
2018-05-01T17:32:13.224Z,1.70
2018-05-01T17:34:43.133Z,1.60
2018-05-01T17:37:13.067Z,0.83
2018-05-01T17:39:42.622Z,4.83
2018-05-01T17:42:12.195Z,1.10
2018-05-01T17:44:41.795Z,1.10
2018-05-01T17:47:11.309Z,1.17
2018-05-01T17:49:40.848Z,1.00
2018-05-01T17:52:10.396Z,1.07
2018-05-01T17:54:40.371Z,0.90
2018-05-01T17:57:10.217Z,1.53
2018-05-01T17:59:40.145Z,1.17
2018-05-01T18:02:10.144Z,1.67
2018-05-01T18:04:40.090Z,2.20
2018-05-01T18:07:09.695Z,1.40
2018-05-01T18:09:39.211Z,1.50
2018-05-01T18:12:08.731Z,2.30
2018-05-01T18:14:38.278Z,1.80
2018-05-01T18:17:08.247Z,1.87
2018-05-01T18:19:37.848Z,4.33
2018-05-01T18:22:07.375Z,2.77
2018-05-01T18:24:36.996Z,2.30
2018-05-01T18:27:06.943Z,2.50
2018-05-01T18:29:36.914Z,2.63
2018-05-01T18:32:06.486Z,2.00
2018-05-01T18:34:36.026Z,1.60
2018-05-01T18:37:05.755Z,2.07
2018-05-01T18:39:35.291Z,2.23
2018-05-01T18:42:05.255Z,2.40
2018-05-01T18:44:34.825Z,1.93
2018-05-01T18:47:04.361Z,1.47
2018-05-01T18:49:34.265Z,2.10
2018-05-01T18:52:03.804Z,2.07
2018-05-01T18:54:33.411Z,1.53
2018-05-01T18:57:02.998Z,1.43
2018-05-01T18:59:32.532Z,3.13
2018-05-01T19:02:02.274Z,3.70
2018-05-01T19:04:32.186Z,2.53
2018-05-01T19:07:01.937Z,1.67
2018-05-01T19:09:31.484Z,1.77
2018-05-01T19:12:00.775Z,1.83
2018-05-01T19:14:30.116Z,1.60
2018-05-01T19:16:59.803Z,1.67
2018-05-01T19:19:29.419Z,2.07
2018-05-01T19:21:59.360Z,2.07
2018-05-01T19:24:28.879Z,3.03
2018-05-01T19:26:58.426Z,2.00
2018-05-01T19:29:27.971Z,1.87
2018-05-01T19:31:57.893Z,2.07
2018-05-01T19:34:27.505Z,2.13
2018-05-01T19:36:57.177Z,1.70
2018-05-01T19:39:26.709Z,2.17
2018-05-01T19:41:56.649Z,1.90
2018-05-01T19:44:26.167Z,1.80
2018-05-01T19:46:55.703Z,2.50
2018-05-01T19:49:25.255Z,1.73
2018-05-01T19:51:54.781Z,2.07
2018-05-01T19:54:24.335Z,3.27
2018-05-01T19:56:53.868Z,1.80
2018-05-01T19:59:24.749Z,1.93
2018-05-01T20:01:54.319Z,3.77
2018-05-01T20:04:23.867Z,2.23
2018-05-01T20:06:53.452Z,3.73
2018-05-01T20:09:22.996Z,2.30
2018-05-01T20:11:52.532Z,2.10
2018-05-01T20:14:22.471Z,2.73
2018-05-01T20:16:51.996Z,2.67
2018-05-01T20:19:21.532Z,3.43
2018-05-01T20:21:51.081Z,2.90
2018-05-01T20:24:20.627Z,2.90
2018-05-01T20:26:50.226Z,2.83
2018-05-01T20:29:19.890Z,2.97
2018-05-01T20:31:49.839Z,3.37
2018-05-01T20:34:19.383Z,2.90
2018-05-01T20:36:50.212Z,5.40
2018-05-01T20:39:19.724Z,3.50
2018-05-01T20:41:48.942Z,2.50
2018-05-01T20:44:18.949Z,2.47
2018-05-01T20:46:48.619Z,2.67
2018-05-01T20:49:18.255Z,2.40
2018-05-01T20:51:48.372Z,3.00
2018-05-01T20:54:17.673Z,3.13
2018-05-01T20:56:47.243Z,3.30
2018-05-01T20:59:16.777Z,6.63
2018-05-01T21:01:46.369Z,2.90
2018-05-01T21:04:16.060Z,3.10
2018-05-01T21:06:45.672Z,3.00
2018-05-01T21:09:15.385Z,3.10
2018-05-01T21:11:45.268Z,4.30
2018-05-01T21:14:15.182Z,2.60
2018-05-01T21:16:45.913Z,2.50
2018-05-01T21:19:15.665Z,3.03
2018-05-01T21:21:45.972Z,2.87
2018-05-01T21:24:15.497Z,2.97
2018-05-01T21:26:45.099Z,3.13
2018-05-01T21:29:14.868Z,2.90
2018-05-01T21:31:44.400Z,3.83
2018-05-01T21:34:13.950Z,3.40
2018-05-01T21:36:43.564Z,3.30
2018-05-01T21:39:13.089Z,3.50
2018-05-01T21:41:43.044Z,3.50
2018-05-01T21:44:12.638Z,4.30
2018-05-01T21:46:43.329Z,3.30
2018-05-01T21:49:12.867Z,3.23
2018-05-01T21:51:42.775Z,3.40
2018-05-01T21:54:11.999Z,3.50
2018-05-01T21:56:41.518Z,3.17
2018-05-01T21:59:11.128Z,3.83
2018-05-01T22:04:16.298Z,3.20
2018-05-01T22:06:45.890Z,2.87
2018-05-01T22:09:15.426Z,5.27
2018-05-01T22:11:44.940Z,3.87
2018-05-01T22:14:14.554Z,3.53
2018-05-01T22:16:44.162Z,3.40
2018-05-01T22:19:13.702Z,3.57
2018-05-01T22:21:43.636Z,3.10
2018-05-01T22:24:13.200Z,4.07
2018-05-01T22:26:42.796Z,3.00
2018-05-01T22:29:12.519Z,2.90
2018-05-01T22:31:42.545Z,3.40
2018-05-01T22:34:12.662Z,3.03
2018-05-01T22:36:42.600Z,3.30
2018-05-01T22:39:12.214Z,3.43
2018-05-01T22:41:41.758Z,4.20
2018-05-01T22:44:11.270Z,3.40
2018-05-01T22:46:40.901Z,5.67
2018-05-01T22:49:10.464Z,5.47
2018-05-01T22:51:39.992Z,3.33
2018-05-01T22:54:09.594Z,3.03
2018-05-01T22:56:39.127Z,4.53
2018-05-01T22:59:08.416Z,3.50
2018-05-01T23:01:37.944Z,4.10
2018-05-01T23:04:07.911Z,3.50
2018-05-01T23:06:37.422Z,3.20
2018-05-01T23:09:06.149Z,3.83
2018-05-01T23:11:35.906Z,3.30
2018-05-01T23:14:07.280Z,3.70
2018-05-01T23:16:36.807Z,4.17
2018-05-01T23:19:06.170Z,4.30
2018-05-01T23:21:35.845Z,3.40
2018-05-01T23:24:05.441Z,4.70
2018-05-01T23:26:35.383Z,3.73
2018-05-01T23:29:04.933Z,3.47
2018-05-01T23:31:34.471Z,4.30
2018-05-01T23:34:04.503Z,3.90
2018-05-01T23:36:34.429Z,3.53
2018-05-01T23:39:03.729Z,3.47
2018-05-01T23:41:33.526Z,4.90
2018-05-01T23:44:03.188Z,5.07
2018-05-01T23:46:32.984Z,3.37
2018-05-01T23:49:02.665Z,4.30
2018-05-01T23:51:32.391Z,6.07
2018-05-01T23:54:02.179Z,3.60
2018-05-01T23:56:31.928Z,3.70
2018-05-01T23:59:01.675Z,5.53
